Aérodrome :
LOGIN :

S'inscrire | Disclaimer

   EN    FR    IT 

 










Légende :    VFR   VFR Marginal   IFR   IFR Intensif   IFR Très Intensif
Visi : 
Plafond : 
>= 8 km
>= 3000ft
5 à 8 km
1000 à 3000 ft
1500m à 5 km
500 à 1000 ft
800 à 1500m
200 à 500 ft
< 800m
< 200 ft
Symboles :   Orages  Brouillard  Fortes neiges  Fortes précipitations  Vent > 20 kt
SIGMETs :   Divers  Orages  Givrage  Turbulence  Onde Orograph.  Cendres Volcan.






- Altitude de l'aérodrome : 39 ft
- Code IATA : TRS


LIPQ - Friuli Venezia Giulia Apt. Trieste

DERNIER METAR :
  • 211820Z AUTO 19003KT 9999 RA OVC032/// 16/14 Q1013

METARs EXPIRÉS :
  • 211750Z AUTO 17004KT 9999 -RA OVC026/// 16/14 Q1013
  • 211720Z AUTO 15003KT 100V180 9999 BKN022/// OVC042/// 16/15 Q1013
  • 211650Z AUTO 03003KT 360V070 9999 OVC019/// 15/15 Q1013
  • 211620Z AUTO 11005KT 9999 BKN016/// OVC041/// 16/15 Q1013
  • 211550Z AUTO 15006KT 8000 -RA OVC014/// 16/15 Q1013

TAF TAF LIPQ
Valide du 21 à 18h jusqu'au 22 à 18h UTC


211700Z 2118/2218 17010KT 9000 BKN040
TEMPO 2118/2215 4000 SHRA
BECMG 2211/2213 08010KT



MET'MAP, la Météo Aéronautique d'un coup d'oeil ! - Copyright ORBIFLY Décembre 2007 - Disclaimer

ORBIFLY MET'MAP TEAM :

Programmation & Développement : Alexandra Zaïnal
Sur une idée originale de : Baudouin d'Aumeries
Assistance à la programmation : Marc-Olivier Méhu
Soutien technique & logistique : Manuel Goepfert

Contact : metmap@orbifly.com




SOURCES & CREDITS :

   NOAA